createdAt,value
2023-02-26T00:02:46.169Z,1.27
2023-02-26T00:07:40.380Z,1.20
2023-02-26T00:12:33.697Z,1.12
2023-02-26T00:17:59.130Z,1.05
2023-02-26T00:22:52.260Z,1.01
2023-02-26T00:27:50.467Z,0.97
2023-02-26T00:32:44.802Z,0.90
2023-02-26T00:37:40.370Z,0.86
2023-02-26T00:42:34.594Z,0.84
2023-02-26T00:47:52.719Z,0.81
2023-02-26T00:53:04.620Z,0.77
2023-02-26T00:58:02.500Z,0.76
2023-02-26T01:03:11.335Z,0.73
2023-02-26T01:08:38.874Z,0.66
2023-02-26T01:13:35.767Z,0.62
2023-02-26T01:18:47.848Z,0.59
2023-02-26T01:23:44.572Z,0.58
2023-02-26T01:28:38.008Z,0.58
2023-02-26T01:33:41.424Z,0.59
2023-02-26T01:39:07.047Z,0.58
2023-02-26T01:44:15.736Z,0.51
2023-02-26T01:49:17.002Z,0.45
2023-02-26T01:54:10.219Z,0.45
2023-02-26T01:59:06.260Z,0.44
2023-02-26T02:03:59.541Z,0.42
2023-02-26T02:08:53.397Z,0.39
2023-02-26T02:13:52.008Z,0.36
2023-02-26T02:19:17.088Z,0.35
2023-02-26T02:24:19.938Z,0.34
2023-02-26T02:29:39.713Z,0.34
2023-02-26T02:34:41.739Z,0.31
2023-02-26T02:39:40.334Z,0.30
2023-02-26T02:44:40.591Z,0.29
2023-02-26T02:49:42.900Z,0.29
2023-02-26T02:54:52.945Z,0.27
2023-02-26T02:59:49.253Z,0.26
2023-02-26T03:04:43.775Z,0.24
2023-02-26T03:09:37.386Z,0.20
2023-02-26T03:14:30.845Z,0.18
2023-02-26T03:19:41.903Z,0.18
2023-02-26T03:25:10.446Z,0.17
2023-02-26T03:30:16.140Z,0.19
2023-02-26T03:35:18.542Z,0.22
2023-02-26T03:40:41.416Z,0.22
2023-02-26T03:45:40.148Z,0.21
2023-02-26T03:50:44.596Z,0.22
2023-02-26T03:56:05.636Z,0.23
2023-02-26T04:01:22.227Z,0.22
2023-02-26T04:06:20.965Z,0.22
2023-02-26T04:11:20.624Z,0.21
2023-02-26T04:16:18.967Z,0.20
2023-02-26T04:21:15.604Z,0.17
2023-02-26T04:26:09.522Z,0.14
2023-02-26T04:31:06.130Z,0.14
2023-02-26T04:35:59.404Z,0.13
2023-02-26T04:40:52.509Z,0.12
2023-02-26T04:45:49.770Z,0.11
2023-02-26T04:50:43.211Z,0.12
2023-02-26T04:55:37.567Z,0.12
2023-02-26T05:00:31.689Z,0.11
2023-02-26T05:05:25.752Z,0.10
2023-02-26T05:10:18.670Z,0.09
2023-02-26T05:15:12.124Z,0.07
2023-02-26T05:20:10.678Z,0.04
2023-02-26T05:25:05.128Z,0.05
2023-02-26T05:29:58.274Z,0.04
2023-02-26T05:34:51.109Z,0.02
2023-02-26T05:39:43.961Z,0.00
2023-02-26T05:44:36.864Z,-0.02
2023-02-26T05:49:29.845Z,-0.02
2023-02-26T05:54:25.187Z,-0.02
2023-02-26T05:59:18.107Z,-0.02
2023-02-26T06:04:11.010Z,-0.02
2023-02-26T06:09:03.836Z,-0.02
2023-02-26T06:13:59.329Z,-0.01
2023-02-26T06:18:52.255Z,-0.04
2023-02-26T06:23:45.866Z,-0.03
2023-02-26T06:28:38.683Z,-0.04
2023-02-26T06:33:31.545Z,-0.03
2023-02-26T06:38:24.537Z,-0.04
2023-02-26T06:43:17.387Z,-0.08
2023-02-26T06:48:11.407Z,-0.13
2023-02-26T06:53:08.067Z,-0.16
2023-02-26T06:58:00.947Z,-0.18
2023-02-26T07:02:54.482Z,-0.19
2023-02-26T07:07:47.638Z,-0.19
2023-02-26T07:12:40.469Z,-0.19
2023-02-26T07:17:33.883Z,-0.20
2023-02-26T07:22:26.670Z,-0.19
2023-02-26T07:27:19.685Z,-0.17
2023-02-26T07:32:13.351Z,-0.12
2023-02-26T07:37:06.574Z,-0.02
2023-02-26T07:42:00.997Z,0.14
2023-02-26T07:46:54.731Z,0.26
2023-02-26T07:51:48.375Z,0.38
2023-02-26T07:56:42.874Z,0.51
2023-02-26T08:01:36.391Z,0.60
2023-02-26T08:06:29.919Z,0.68
2023-02-26T08:11:23.173Z,0.71
2023-02-26T08:16:16.111Z,0.82
2023-02-26T08:21:09.126Z,0.94
2023-02-26T08:26:03.532Z,1.00
2023-02-26T08:30:56.839Z,1.08
2023-02-26T08:35:50.700Z,1.18
2023-02-26T08:40:43.516Z,1.26
2023-02-26T08:45:36.706Z,1.31
2023-02-26T08:50:29.549Z,1.32
2023-02-26T08:55:23.436Z,1.30
2023-02-26T09:00:18.638Z,1.24
2023-02-26T09:05:12.921Z,1.10
2023-02-26T09:10:07.475Z,0.98
2023-02-26T09:15:00.498Z,0.92
2023-02-26T09:19:53.411Z,0.92
2023-02-26T09:24:46.248Z,0.86
2023-02-26T09:29:39.039Z,0.77
2023-02-26T09:34:31.930Z,0.72
2023-02-26T09:39:25.424Z,0.77
2023-02-26T09:44:31.839Z,0.87
2023-02-26T09:49:36.832Z,0.89
2023-02-26T09:54:36.148Z,0.85
2023-02-26T09:59:33.970Z,0.84
2023-02-26T10:04:59.799Z,0.80
2023-02-26T10:10:19.140Z,0.78
2023-02-26T10:15:14.813Z,0.83
2023-02-26T10:20:16.849Z,0.84
2023-02-26T10:25:19.656Z,0.79
2023-02-26T10:30:23.223Z,0.79
2023-02-26T10:35:20.073Z,0.82
2023-02-26T10:40:29.292Z,0.83
2023-02-26T10:45:38.791Z,0.87
2023-02-26T10:50:33.179Z,0.87
2023-02-26T10:55:55.229Z,0.86
2023-02-26T11:00:53.255Z,0.84
2023-02-26T11:05:46.969Z,0.77
2023-02-26T11:10:49.963Z,0.70
2023-02-26T11:15:44.079Z,0.63
2023-02-26T11:20:43.295Z,0.59
2023-02-26T11:25:37.574Z,0.61
2023-02-26T11:30:34.331Z,0.69
2023-02-26T11:35:32.591Z,0.82
2023-02-26T11:40:35.033Z,0.88
2023-02-26T11:45:28.149Z,0.99
2023-02-26T11:50:26.104Z,1.22
2023-02-26T11:55:28.990Z,1.47
2023-02-26T12:00:26.502Z,1.67
2023-02-26T12:05:19.578Z,1.79
2023-02-26T12:10:20.086Z,1.86
2023-02-26T12:15:29.811Z,1.75
2023-02-26T12:20:33.701Z,1.64
2023-02-26T12:25:32.385Z,1.64
2023-02-26T12:30:40.583Z,1.63
2023-02-26T12:35:33.438Z,1.53
2023-02-26T12:40:33.710Z,1.46
2023-02-26T12:45:41.812Z,1.35
2023-02-26T12:50:34.575Z,1.25
2023-02-26T12:55:39.710Z,1.22
2023-02-26T13:00:54.046Z,1.32
2023-02-26T13:06:09.303Z,1.42
2023-02-26T13:11:07.878Z,1.48
2023-02-26T13:16:46.036Z,1.52
2023-02-26T13:21:45.979Z,1.67
2023-02-26T13:26:42.496Z,1.83
2023-02-26T13:31:41.667Z,1.84
2023-02-26T13:36:35.514Z,1.77
2023-02-26T13:41:49.604Z,1.69
2023-02-26T13:46:51.779Z,1.56
2023-02-26T13:51:47.592Z,1.50
2023-02-26T13:56:40.620Z,1.57
2023-02-26T14:01:36.129Z,1.68
2023-02-26T14:21:26.613Z,1.94
2023-02-26T14:26:20.637Z,1.93
2023-02-26T14:31:19.846Z,1.86
2023-02-26T14:36:21.099Z,1.77
2023-02-26T14:41:26.249Z,1.75
2023-02-26T14:46:20.081Z,1.69
2023-02-26T14:51:43.048Z,1.62
2023-02-26T14:57:03.457Z,1.60
2023-02-26T15:02:37.912Z,1.58
2023-02-26T15:07:42.314Z,1.47
2023-02-26T15:12:44.297Z,1.36
2023-02-26T15:17:51.918Z,1.30
2023-02-26T15:22:56.601Z,1.25
2023-02-26T15:27:49.845Z,1.20
2023-02-26T15:32:42.978Z,1.13
2023-02-26T15:37:36.143Z,1.07
2023-02-26T15:42:34.209Z,0.98
2023-02-26T15:47:30.022Z,0.90
2023-02-26T15:52:25.299Z,0.80
2023-02-26T15:57:20.095Z,0.65
2023-02-26T16:02:14.500Z,0.46
2023-02-26T16:07:07.213Z,0.26
2023-02-26T16:12:02.965Z,0.09
2023-02-26T16:16:57.473Z,-0.10
2023-02-26T16:21:52.883Z,-0.20
2023-02-26T16:26:52.856Z,-0.27
2023-02-26T16:31:52.696Z,-0.37
2023-02-26T16:36:45.552Z,-0.45
2023-02-26T16:41:41.386Z,-0.46
2023-02-26T16:46:48.257Z,-0.45
2023-02-26T16:51:42.211Z,-0.47
2023-02-26T16:56:42.041Z,-0.53
2023-02-26T17:01:53.027Z,-0.56
2023-02-26T17:06:45.842Z,-0.57
2023-02-26T17:11:45.788Z,-0.57
2023-02-26T17:16:38.487Z,-0.60
2023-02-26T17:21:32.866Z,-0.62
2023-02-26T17:26:26.090Z,-0.64
2023-02-26T17:31:19.206Z,-0.70
2023-02-26T17:36:16.647Z,-0.77
2023-02-26T17:41:12.084Z,-0.80
2023-02-26T17:46:04.976Z,-0.82
2023-02-26T17:50:59.370Z,-0.85
2023-02-26T17:55:54.285Z,-0.86
2023-02-26T18:00:49.819Z,-0.87
2023-02-26T18:05:43.524Z,-0.87
2023-02-26T18:10:36.194Z,-0.88
2023-02-26T18:15:28.838Z,-0.88
2023-02-26T18:20:23.425Z,-0.86
2023-02-26T18:25:16.602Z,-0.85
2023-02-26T18:30:22.592Z,-0.87
2023-02-26T18:35:17.821Z,-0.85
2023-02-26T18:40:17.972Z,-0.79
2023-02-26T18:45:12.310Z,-0.74
2023-02-26T18:50:07.263Z,-0.74
2023-02-26T18:55:00.675Z,-0.71
2023-02-26T18:59:53.323Z,-0.72
2023-02-26T19:04:47.258Z,-0.71
2023-02-26T19:09:40.236Z,-0.69
2023-02-26T19:14:33.319Z,-0.68
2023-02-26T19:19:26.083Z,-0.71
2023-02-26T19:24:18.778Z,-0.71
2023-02-26T19:29:16.893Z,-0.70
2023-02-26T19:34:09.830Z,-0.68
2023-02-26T19:39:05.667Z,-0.66
2023-02-26T19:43:58.986Z,-0.68
2023-02-26T19:48:51.909Z,-0.67
2023-02-26T19:53:44.667Z,-0.66
2023-02-26T19:58:37.390Z,-0.63
2023-02-26T20:03:31.383Z,-0.61
2023-02-26T20:08:27.864Z,-0.59
2023-02-26T20:13:22.194Z,-0.59
2023-02-26T20:18:14.863Z,-0.57
2023-02-26T20:23:07.560Z,-0.56
2023-02-26T20:28:00.388Z,-0.56
2023-02-26T20:32:53.287Z,-0.54
2023-02-26T20:37:46.664Z,-0.53
2023-02-26T20:42:39.724Z,-0.54
2023-02-26T20:47:32.368Z,-0.55
2023-02-26T20:52:25.310Z,-0.56
2023-02-26T20:57:18.241Z,-0.54
2023-02-26T21:02:13.884Z,-0.53
2023-02-26T21:07:17.712Z,-0.50
2023-02-26T21:12:10.690Z,-0.47
2023-02-26T21:17:07.212Z,-0.45
2023-02-26T21:22:01.131Z,-0.44
2023-02-26T21:26:53.887Z,-0.41
2023-02-26T21:31:46.717Z,-0.40
2023-02-26T21:36:39.483Z,-0.36
2023-02-26T21:41:36.650Z,-0.34
2023-02-26T21:46:29.518Z,-0.31
2023-02-26T21:51:22.530Z,-0.30
2023-02-26T21:56:15.274Z,-0.28
2023-02-26T22:01:10.475Z,-0.27
2023-02-26T22:06:03.347Z,-0.26
2023-02-26T22:10:57.039Z,-0.25
2023-02-26T22:15:50.204Z,-0.24
2023-02-26T22:20:43.094Z,-0.22
2023-02-26T22:25:35.901Z,-0.20
2023-02-26T22:30:28.705Z,-0.18
2023-02-26T22:35:21.516Z,-0.17
2023-02-26T22:40:15.684Z,-0.17
2023-02-26T22:45:09.213Z,-0.16
2023-02-26T22:50:02.069Z,-0.16
2023-02-26T22:54:54.729Z,-0.16
2023-02-26T22:59:48.427Z,-0.16
2023-02-26T23:04:41.087Z,-0.15
2023-02-26T23:09:33.867Z,-0.15
2023-02-26T23:14:26.559Z,-0.13
2023-02-26T23:19:22.725Z,-0.12
2023-02-26T23:24:18.077Z,-0.11
2023-02-26T23:29:11.030Z,-0.11
2023-02-26T23:34:04.885Z,-0.10
2023-02-26T23:38:57.731Z,-0.09
2023-02-26T23:43:50.446Z,-0.09
2023-02-26T23:48:43.675Z,-0.09
2023-02-26T23:53:37.706Z,-0.10
2023-02-26T23:58:31.845Z,-0.10
